Napoli Jet — IQTJ — position and weather

sailwx.info

Track history (hours):
 
Tides and Currents Weather Stations Pressure Air Temp Water Temp Dewpoint Dewpoint Depression Visibility Wind Speed Wind Dir Waves Ship Positions

Napoli Jet

Last reported at 2015-Jul-05 08:33 UTC. Time now 2015-Jul-05 09:33 UTC.
Position N 40°33' E 014°14'.

Length 41 m; draft 1.3 m.

Type: Ship. MMSI: 247051400.

Date/timePositionNaut miles runAvg speedWind from/ knotsBaromVisibWave heightAir tempDewpointWater temp
2015-Jul-05 08:33N 40°33' E 014°14'16 5.4
2015-Jul-05 05:34N 40°50' E 014°17'1616.3
2015-Jul-05 04:33N 40°33' E 014°14'5 0.5
2015-Jul-04 18:33N 40°39' E 014°16'11 5.7
2015-Jul-04 16:33N 40°50' E 014°17'1716.7
2015-Jul-04 15:33N 40°33' E 014°14'1713.5
2015-Jul-04 14:19N 40°50' E 014°15'1520.0
2015-Jul-04 13:33N 40°35' E 014°15'5 5.4
2015-Jul-04 12:33N 40°38' E 014°21'7 7.0
2015-Jul-04 11:33N 40°33' E 014°14'0 0.0
2015-Jul-04 10:33N 40°33' E 014°14'0 0.0
2015-Jul-04 09:33N 40°33' E 014°14'0 0.0
2015-Jul-04 08:33N 40°33' E 014°14'17 5.5
2015-Jul-04 05:33N 40°50' E 014°17'10 0.9
2015-Jul-03 18:33N 40°40' E 014°16'2 0.6
2015-Jul-03 15:34N 40°42' E 014°17'9 8.9
2015-Jul-03 14:33N 40°33' E 014°14'17 8.1
2015-Jul-03 12:30N 40°50' E 014°16'1717.8
2015-Jul-03 11:33N 40°33' E 014°14'0 0.0
2015-Jul-03 10:33N 40°33' E 014°14'0 0.3
2015-Jul-03 09:33N 40°34' E 014°15'1715.1
2015-Jul-03 08:27N 40°50' E 014°15'1718.8
2015-Jul-03 07:33N 40°33' E 014°14'1010.3
2015-Jul-03 06:33N 40°44' E 014°16'6 5.6
2015-Jul-03 05:33N 40°49' E 014°17'1616.1
2015-Jul-03 04:33N 40°33' E 014°14'7 0.7
2015-Jul-02 18:33N 40°40' E 014°16'10 4.9
2015-Jul-02 16:33N 40°50' E 014°17'1716.4
2015-Jul-02 15:33N 40°33' E 014°14'1712.5
2015-Jul-02 14:13N 40°50' E 014°16'1623.9
2015-Jul-02 13:33N 40°34' E 014°16'1 1.4
2015-Jul-02 12:33N 40°33' E 014°14'0 0.0
2015-Jul-02 11:34N 40°33' E 014°14'17 8.1
2015-Jul-02 09:29N 40°50' E 014°16'1717.8
2015-Jul-02 08:33N 40°33' E 014°14'17 5.5
2015-Jul-02 05:34N 40°50' E 014°17'1716.6
2015-Jul-02 04:34N 40°33' E 014°14'5 0.5
2015-Jul-01 18:33N 40°38' E 014°16'11 5.5
2015-Jul-01 16:33N 40°49' E 014°17'1616.2
2015-Jul-01 15:33N 40°33' E 014°14'1712.4
2015-Jul-01 14:13N 40°50' E 014°16'1623.7
2015-Jul-01 13:34N 40°34' E 014°16'6 6.0
2015-Jul-01 12:33N 40°38' E 014°23'8 7.6
2015-Jul-01 11:33N 40°33' E 014°14'0 0.0
2015-Jul-01 10:33N 40°33' E 014°14'17 8.0
2015-Jul-01 08:28N 40°50' E 014°16'1718.4
2015-Jul-01 07:33N 40°33' E 014°14'16 1.0
2015-Jun-30 15:22N 40°50' E 014°17'1620.1
2015-Jun-30 14:33N 40°33' E 014°14'0 0.3
2015-Jun-30 13:33N 40°34' E 014°15'17 7.6
2015-Jun-30 11:23N 40°50' E 014°17'1720.0
2015-Jun-30 10:33N 40°33' E 014°14'0 0.0
2015-Jun-30 09:31N 40°33' E 014°14'0 0.0
2015-Jun-30 08:33N 40°33' E 014°14'15 0.9
2015-Jun-29 16:30N 40°48' E 014°17'1515.4
2015-Jun-29 15:33N 40°33' E 014°14'1712.2
2015-Jun-29 14:11N 40°50' E 014°17'1524.2
2015-Jun-29 13:33N 40°35' E 014°16'1 1.4
2015-Jun-29 12:32N 40°33' E 014°14'0 0.0
2015-Jun-29 11:31N 40°33' E 014°14'0 0.0
2015-Jun-29 10:33N 40°33' E 014°14'0 0.0
2015-Jun-29 09:31N 40°33' E 014°14'16 1.0
2015-Jun-28 17:24N 40°50' E 014°17'1619.2
2015-Jun-28 16:33N 40°33' E 014°14'4 2.1
2015-Jun-28 14:33N 40°37' E 014°16'4 3.9
2015-Jun-28 13:28N 40°33' E 014°14'0 0.0
2015-Jun-28 12:31N 40°33' E 014°14'2 1.7
2015-Jun-28 11:33N 40°35' E 014°16'1513.9
2015-Jun-28 10:27N 40°50' E 014°16'1718.7
2015-Jun-28 09:33N 40°33' E 014°14'0 0.0
2015-Jun-28 08:31N 40°33' E 014°14'15 1.0
2015-Jun-27 16:33N 40°49' E 014°17'1515.4
2015-Jun-27 15:33N 40°33' E 014°14'0 0.0
2015-Jun-27 14:32N 40°33' E 014°14'17 7.9
2015-Jun-27 12:26N 40°50' E 014°17'1718.7
2015-Jun-27 11:33N 40°33' E 014°14'0 0.0
2015-Jun-27 10:34N 40°33' E 014°14'0 0.0
2015-Jun-27 09:34N 40°33' E 014°14'13 0.9
2015-Jun-26 18:31N 40°46' E 014°17'9 8.9
2015-Jun-26 17:33N 40°38' E 014°16'12 8.3
2015-Jun-26 16:06N 40°50' E 014°17'1323.6
2015-Jun-26 15:33N 40°37' E 014°16'5 5.1
2015-Jun-26 14:32N 40°38' E 014°23'8 7.8
2015-Jun-26 13:33N 40°33' E 014°14'7 7.5
2015-Jun-26 12:33N 40°38' E 014°22'7 7.3
2015-Jun-26 11:33N 40°33' E 014°14'0 0.0
2015-Jun-26 10:33N 40°33' E 014°14'0 0.0
2015-Jun-26 09:33N 40°33' E 014°14'4 4.0
2015-Jun-26 08:33N 40°37' E 014°16'13 0.7
2015-Jun-25 15:16N 40°50' E 014°17'1623.1
2015-Jun-25 14:33N 40°34' E 014°15'0 0.3
2015-Jun-25 13:29N 40°33' E 014°14'0 0.0
2015-Jun-25 12:33N 40°33' E 014°14'0 0.0
2015-Jun-25 11:33N 40°33' E 014°14'1613.2
2015-Jun-25 10:17N 40°50' E 014°17'1621.6
2015-Jun-25 09:32N 40°33' E 014°14'  
Track history (hours):
 
Tides and Currents Weather Stations Pressure Air Temp Water Temp Dewpoint Dewpoint Depression Visibility Wind Speed Wind Dir Waves Ship Positions

Napoli Jet

Last reported at 2015-Jul-05 08:33 UTC. Time now 2015-Jul-05 09:33 UTC.
Position N 40°33' E 014°14'.

Length 41 m; draft 1.3 m.

Type: Ship. MMSI: 247051400.

Date/timePositionNaut miles runAvg speedWind from/ knotsBaromVisibWave heightAir tempDewpointWater temp
2015-Jul-05 08:33N 40°33' E 014°14'16 5.4
2015-Jul-05 05:34N 40°50' E 014°17'1616.3
2015-Jul-05 04:33N 40°33' E 014°14'5 0.5
2015-Jul-04 18:33N 40°39' E 014°16'11 5.7
2015-Jul-04 16:33N 40°50' E 014°17'1716.7
2015-Jul-04 15:33N 40°33' E 014°14'1713.5
2015-Jul-04 14:19N 40°50' E 014°15'1520.0
2015-Jul-04 13:33N 40°35' E 014°15'5 5.4
2015-Jul-04 12:33N 40°38' E 014°21'7 7.0
2015-Jul-04 11:33N 40°33' E 014°14'0 0.0
2015-Jul-04 10:33N 40°33' E 014°14'0 0.0
2015-Jul-04 09:33N 40°33' E 014°14'0 0.0
2015-Jul-04 08:33N 40°33' E 014°14'17 5.5
2015-Jul-04 05:33N 40°50' E 014°17'10 0.9
2015-Jul-03 18:33N 40°40' E 014°16'2 0.6
2015-Jul-03 15:34N 40°42' E 014°17'9 8.9
2015-Jul-03 14:33N 40°33' E 014°14'17 8.1
2015-Jul-03 12:30N 40°50' E 014°16'1717.8
2015-Jul-03 11:33N 40°33' E 014°14'0 0.0
2015-Jul-03 10:33N 40°33' E 014°14'0 0.3
2015-Jul-03 09:33N 40°34' E 014°15'1715.1
2015-Jul-03 08:27N 40°50' E 014°15'1718.8
2015-Jul-03 07:33N 40°33' E 014°14'1010.3
2015-Jul-03 06:33N 40°44' E 014°16'6 5.6
2015-Jul-03 05:33N 40°49' E 014°17'1616.1
2015-Jul-03 04:33N 40°33' E 014°14'7 0.7
2015-Jul-02 18:33N 40°40' E 014°16'10 4.9
2015-Jul-02 16:33N 40°50' E 014°17'1716.4
2015-Jul-02 15:33N 40°33' E 014°14'1712.5
2015-Jul-02 14:13N 40°50' E 014°16'1623.9
2015-Jul-02 13:33N 40°34' E 014°16'1 1.4
2015-Jul-02 12:33N 40°33' E 014°14'0 0.0
2015-Jul-02 11:34N 40°33' E 014°14'17 8.1
2015-Jul-02 09:29N 40°50' E 014°16'1717.8
2015-Jul-02 08:33N 40°33' E 014°14'17 5.5
2015-Jul-02 05:34N 40°50' E 014°17'1716.6
2015-Jul-02 04:34N 40°33' E 014°14'5 0.5
2015-Jul-01 18:33N 40°38' E 014°16'11 5.5
2015-Jul-01 16:33N 40°49' E 014°17'1616.2
2015-Jul-01 15:33N 40°33' E 014°14'1712.4
2015-Jul-01 14:13N 40°50' E 014°16'1623.7
2015-Jul-01 13:34N 40°34' E 014°16'6 6.0
2015-Jul-01 12:33N 40°38' E 014°23'8 7.6
2015-Jul-01 11:33N 40°33' E 014°14'0 0.0
2015-Jul-01 10:33N 40°33' E 014°14'17 8.0
2015-Jul-01 08:28N 40°50' E 014°16'1718.4
2015-Jul-01 07:33N 40°33' E 014°14'16 1.0
2015-Jun-30 15:22N 40°50' E 014°17'1620.1
2015-Jun-30 14:33N 40°33' E 014°14'0 0.3
2015-Jun-30 13:33N 40°34' E 014°15'17 7.6
2015-Jun-30 11:23N 40°50' E 014°17'1720.0
2015-Jun-30 10:33N 40°33' E 014°14'0 0.0
2015-Jun-30 09:31N 40°33' E 014°14'0 0.0
2015-Jun-30 08:33N 40°33' E 014°14'15 0.9
2015-Jun-29 16:30N 40°48' E 014°17'1515.4
2015-Jun-29 15:33N 40°33' E 014°14'1712.2
2015-Jun-29 14:11N 40°50' E 014°17'1524.2
2015-Jun-29 13:33N 40°35' E 014°16'1 1.4
2015-Jun-29 12:32N 40°33' E 014°14'0 0.0
2015-Jun-29 11:31N 40°33' E 014°14'0 0.0
2015-Jun-29 10:33N 40°33' E 014°14'0 0.0
2015-Jun-29 09:31N 40°33' E 014°14'16 1.0
2015-Jun-28 17:24N 40°50' E 014°17'1619.2
2015-Jun-28 16:33N 40°33' E 014°14'4 2.1
2015-Jun-28 14:33N 40°37' E 014°16'4 3.9
2015-Jun-28 13:28N 40°33' E 014°14'0 0.0
2015-Jun-28 12:31N 40°33' E 014°14'2 1.7
2015-Jun-28 11:33N 40°35' E 014°16'1513.9
2015-Jun-28 10:27N 40°50' E 014°16'1718.7
2015-Jun-28 09:33N 40°33' E 014°14'0 0.0
2015-Jun-28 08:31N 40°33' E 014°14'15 1.0
2015-Jun-27 16:33N 40°49' E 014°17'1515.4
2015-Jun-27 15:33N 40°33' E 014°14'0 0.0
2015-Jun-27 14:32N 40°33' E 014°14'17 7.9
2015-Jun-27 12:26N 40°50' E 014°17'1718.7
2015-Jun-27 11:33N 40°33' E 014°14'0 0.0
2015-Jun-27 10:34N 40°33' E 014°14'0 0.0
2015-Jun-27 09:34N 40°33' E 014°14'13 0.9
2015-Jun-26 18:31N 40°46' E 014°17'9 8.9
2015-Jun-26 17:33N 40°38' E 014°16'12 8.3
2015-Jun-26 16:06N 40°50' E 014°17'1323.6
2015-Jun-26 15:33N 40°37' E 014°16'5 5.1
2015-Jun-26 14:32N 40°38' E 014°23'8 7.8
2015-Jun-26 13:33N 40°33' E 014°14'7 7.5
2015-Jun-26 12:33N 40°38' E 014°22'7 7.3
2015-Jun-26 11:33N 40°33' E 014°14'0 0.0
2015-Jun-26 10:33N 40°33' E 014°14'0 0.0
2015-Jun-26 09:33N 40°33' E 014°14'4 4.0
2015-Jun-26 08:33N 40°37' E 014°16'13 0.7
2015-Jun-25 15:16N 40°50' E 014°17'1623.1
2015-Jun-25 14:33N 40°34' E 014°15'0 0.3
2015-Jun-25 13:29N 40°33' E 014°14'0 0.0
2015-Jun-25 12:33N 40°33' E 014°14'0 0.0
2015-Jun-25 11:33N 40°33' E 014°14'1613.2
2015-Jun-25 10:17N 40°50' E 014°17'1621.6
2015-Jun-25 09:32N 40°33' E 014°14'  

Dump ship's entire track history